sensor_id;sensor_type;location;lat;lon;timestamp;pressure;altitude;pressure_sealevel;temperature
20103;BMP180;10210;52.284;9.892;2024-02-21T00:00:53;101041.00;;;12.60
20103;BMP180;10210;52.284;9.892;2024-02-21T00:03:18;101041.00;;;12.60
20103;BMP180;10210;52.284;9.892;2024-02-21T00:05:45;101026.00;;;12.70
20103;BMP180;10210;52.284;9.892;2024-02-21T00:08:10;101032.00;;;12.60
20103;BMP180;10210;52.284;9.892;2024-02-21T00:10:36;101032.00;;;12.70
20103;BMP180;10210;52.284;9.892;2024-02-21T00:13:02;101025.00;;;12.70
20103;BMP180;10210;52.284;9.892;2024-02-21T00:15:28;101026.00;;;12.70
20103;BMP180;10210;52.284;9.892;2024-02-21T00:17:54;101025.00;;;12.70
20103;BMP180;10210;52.284;9.892;2024-02-21T00:20:20;101014.00;;;12.60
20103;BMP180;10210;52.284;9.892;2024-02-21T00:22:46;101018.00;;;12.60
20103;BMP180;10210;52.284;9.892;2024-02-21T00:25:12;101022.00;;;12.60
20103;BMP180;10210;52.284;9.892;2024-02-21T00:27:38;101022.00;;;12.60
20103;BMP180;10210;52.284;9.892;2024-02-21T00:30:05;101014.00;;;12.70
20103;BMP180;10210;52.284;9.892;2024-02-21T00:32:31;101016.00;;;12.70
20103;BMP180;10210;52.284;9.892;2024-02-21T00:34:59;101009.00;;;12.70
20103;BMP180;10210;52.284;9.892;2024-02-21T00:37:25;101005.00;;;12.70
20103;BMP180;10210;52.284;9.892;2024-02-21T00:39:50;100991.00;;;12.70
20103;BMP180;10210;52.284;9.892;2024-02-21T00:42:16;100998.00;;;12.70
20103;BMP180;10210;52.284;9.892;2024-02-21T00:44:41;100997.00;;;12.70
20103;BMP180;10210;52.284;9.892;2024-02-21T00:47:07;100995.00;;;12.70
20103;BMP180;10210;52.284;9.892;2024-02-21T00:49:32;100993.00;;;12.70
20103;BMP180;10210;52.284;9.892;2024-02-21T00:51:58;100980.00;;;12.70
20103;BMP180;10210;52.284;9.892;2024-02-21T00:54:24;100982.00;;;12.70
20103;BMP180;10210;52.284;9.892;2024-02-21T00:56:49;100986.00;;;12.70
20103;BMP180;10210;52.284;9.892;2024-02-21T00:59:15;100987.00;;;12.70
20103;BMP180;10210;52.284;9.892;2024-02-21T01:01:41;100990.00;;;12.70
20103;BMP180;10210;52.284;9.892;2024-02-21T01:04:09;100977.00;;;12.70
20103;BMP180;10210;52.284;9.892;2024-02-21T01:06:35;100979.00;;;12.70
20103;BMP180;10210;52.284;9.892;2024-02-21T01:09:01;100975.00;;;12.60
20103;BMP180;10210;52.284;9.892;2024-02-21T01:11:26;100964.00;;;12.70
20103;BMP180;10210;52.284;9.892;2024-02-21T01:13:53;100977.00;;;12.70
20103;BMP180;10210;52.284;9.892;2024-02-21T01:16:19;100963.00;;;12.70
20103;BMP180;10210;52.284;9.892;2024-02-21T01:18:44;100966.00;;;12.70
20103;BMP180;10210;52.284;9.892;2024-02-21T01:21:10;100965.00;;;12.70
20103;BMP180;10210;52.284;9.892;2024-02-21T01:23:36;100955.00;;;12.70
20103;BMP180;10210;52.284;9.892;2024-02-21T01:26:03;100949.00;;;12.70
20103;BMP180;10210;52.284;9.892;2024-02-21T01:28:29;100950.00;;;12.70
20103;BMP180;10210;52.284;9.892;2024-02-21T01:30:56;100945.00;;;12.70
20103;BMP180;10210;52.284;9.892;2024-02-21T01:33:22;100952.00;;;12.70
20103;BMP180;10210;52.284;9.892;2024-02-21T01:35:47;100942.00;;;12.70
20103;BMP180;10210;52.284;9.892;2024-02-21T01:38:14;100940.00;;;12.70
20103;BMP180;10210;52.284;9.892;2024-02-21T01:40:40;100930.00;;;12.70
20103;BMP180;10210;52.284;9.892;2024-02-21T01:43:16;100920.00;;;12.70
20103;BMP180;10210;52.284;9.892;2024-02-21T01:45:51;100935.00;;;12.70
20103;BMP180;10210;52.284;9.892;2024-02-21T01:48:18;100935.00;;;12.70
20103;BMP180;10210;52.284;9.892;2024-02-21T01:50:45;100931.00;;;12.70
20103;BMP180;10210;52.284;9.892;2024-02-21T01:53:18;100926.00;;;12.70
20103;BMP180;10210;52.284;9.892;2024-02-21T01:55:45;100931.00;;;12.70
20103;BMP180;10210;52.284;9.892;2024-02-21T01:58:14;100934.00;;;12.70
20103;BMP180;10210;52.284;9.892;2024-02-21T02:00:44;100923.00;;;12.70
20103;BMP180;10210;52.284;9.892;2024-02-21T02:03:12;100917.00;;;12.70
20103;BMP180;10210;52.284;9.892;2024-02-21T02:05:49;100915.00;;;12.70
20103;BMP180;10210;52.284;9.892;2024-02-21T02:08:19;100913.00;;;12.70
20103;BMP180;10210;52.284;9.892;2024-02-21T02:10:45;100904.00;;;12.70
20103;BMP180;10210;52.284;9.892;2024-02-21T02:13:12;100894.00;;;12.70
20103;BMP180;10210;52.284;9.892;2024-02-21T02:15:39;100880.00;;;12.70
20103;BMP180;10210;52.284;9.892;2024-02-21T02:18:07;100890.00;;;12.70
20103;BMP180;10210;52.284;9.892;2024-02-21T02:20:34;100881.00;;;12.70
20103;BMP180;10210;52.284;9.892;2024-02-21T02:23:04;100878.00;;;12.70
20103;BMP180;10210;52.284;9.892;2024-02-21T02:25:32;100882.00;;;12.70
20103;BMP180;10210;52.284;9.892;2024-02-21T02:27:57;100857.00;;;12.70
20103;BMP180;10210;52.284;9.892;2024-02-21T02:30:23;100869.00;;;12.70
20103;BMP180;10210;52.284;9.892;2024-02-21T02:32:49;100861.00;;;12.70
20103;BMP180;10210;52.284;9.892;2024-02-21T02:35:15;100866.00;;;12.70
20103;BMP180;10210;52.284;9.892;2024-02-21T02:37:47;100862.00;;;12.70
20103;BMP180;10210;52.284;9.892;2024-02-21T02:40:13;100838.00;;;12.70
20103;BMP180;10210;52.284;9.892;2024-02-21T02:42:39;100850.00;;;12.70
20103;BMP180;10210;52.284;9.892;2024-02-21T02:45:06;100827.00;;;12.70
20103;BMP180;10210;52.284;9.892;2024-02-21T02:47:31;100835.00;;;12.70
20103;BMP180;10210;52.284;9.892;2024-02-21T02:49:57;100845.00;;;12.70
20103;BMP180;10210;52.284;9.892;2024-02-21T02:52:23;100835.00;;;12.70
20103;BMP180;10210;52.284;9.892;2024-02-21T02:54:48;100837.00;;;12.70
20103;BMP180;10210;52.284;9.892;2024-02-21T02:57:17;100835.00;;;12.70
20103;BMP180;10210;52.284;9.892;2024-02-21T02:59:48;100828.00;;;12.70
20103;BMP180;10210;52.284;9.892;2024-02-21T03:02:14;100815.00;;;12.70
20103;BMP180;10210;52.284;9.892;2024-02-21T03:04:40;100827.00;;;12.70
20103;BMP180;10210;52.284;9.892;2024-02-21T03:07:06;100816.00;;;12.70
20103;BMP180;10210;52.284;9.892;2024-02-21T03:09:32;100823.00;;;12.70
20103;BMP180;10210;52.284;9.892;2024-02-21T03:11:58;100821.00;;;12.70
20103;BMP180;10210;52.284;9.892;2024-02-21T03:14:34;100827.00;;;12.70
20103;BMP180;10210;52.284;9.892;2024-02-21T03:16:59;100805.00;;;12.70
20103;BMP180;10210;52.284;9.892;2024-02-21T03:19:25;100804.00;;;12.70
20103;BMP180;10210;52.284;9.892;2024-02-21T03:21:52;100784.00;;;12.70
20103;BMP180;10210;52.284;9.892;2024-02-21T03:24:19;100790.00;;;12.70
20103;BMP180;10210;52.284;9.892;2024-02-21T03:26:45;100786.00;;;12.70
20103;BMP180;10210;52.284;9.892;2024-02-21T03:29:17;100771.00;;;12.70
20103;BMP180;10210;52.284;9.892;2024-02-21T03:31:43;100766.00;;;12.70
20103;BMP180;10210;52.284;9.892;2024-02-21T03:34:11;100757.00;;;12.70
20103;BMP180;10210;52.284;9.892;2024-02-21T03:36:37;100755.00;;;12.70
20103;BMP180;10210;52.284;9.892;2024-02-21T03:39:03;100741.00;;;12.70
20103;BMP180;10210;52.284;9.892;2024-02-21T03:41:29;100729.00;;;12.70
20103;BMP180;10210;52.284;9.892;2024-02-21T03:43:54;100722.00;;;12.70
20103;BMP180;10210;52.284;9.892;2024-02-21T03:46:20;100722.00;;;12.70
20103;BMP180;10210;52.284;9.892;2024-02-21T03:48:46;100726.00;;;12.70
20103;BMP180;10210;52.284;9.892;2024-02-21T03:51:11;100720.00;;;12.70
20103;BMP180;10210;52.284;9.892;2024-02-21T03:53:37;100736.00;;;12.70
20103;BMP180;10210;52.284;9.892;2024-02-21T03:56:03;100718.00;;;12.70
20103;BMP180;10210;52.284;9.892;2024-02-21T03:58:30;100720.00;;;12.70
20103;BMP180;10210;52.284;9.892;2024-02-21T04:00:56;100734.00;;;12.70
20103;BMP180;10210;52.284;9.892;2024-02-21T04:03:22;100729.00;;;12.70
20103;BMP180;10210;52.284;9.892;2024-02-21T04:05:48;100738.00;;;12.70
20103;BMP180;10210;52.284;9.892;2024-02-21T04:08:14;100742.00;;;12.70
20103;BMP180;10210;52.284;9.892;2024-02-21T04:10:40;100738.00;;;12.70
20103;BMP180;10210;52.284;9.892;2024-02-21T04:13:06;100751.00;;;12.70
20103;BMP180;10210;52.284;9.892;2024-02-21T04:15:32;100749.00;;;12.70
20103;BMP180;10210;52.284;9.892;2024-02-21T04:17:58;100755.00;;;12.70
20103;BMP180;10210;52.284;9.892;2024-02-21T04:20:24;100763.00;;;12.70
20103;BMP180;10210;52.284;9.892;2024-02-21T04:22:49;100763.00;;;12.70
20103;BMP180;10210;52.284;9.892;2024-02-21T04:25:15;100763.00;;;12.70
20103;BMP180;10210;52.284;9.892;2024-02-21T04:27:41;100760.00;;;12.70
20103;BMP180;10210;52.284;9.892;2024-02-21T04:30:08;100766.00;;;12.70
20103;BMP180;10210;52.284;9.892;2024-02-21T04:32:35;100769.00;;;12.70
20103;BMP180;10210;52.284;9.892;2024-02-21T04:35:00;100759.00;;;12.70
20103;BMP180;10210;52.284;9.892;2024-02-21T04:37:26;100760.00;;;12.70
20103;BMP180;10210;52.284;9.892;2024-02-21T04:39:52;100755.00;;;12.70
20103;BMP180;10210;52.284;9.892;2024-02-21T04:42:18;100751.00;;;12.70
20103;BMP180;10210;52.284;9.892;2024-02-21T04:44:44;100751.00;;;12.70
20103;BMP180;10210;52.284;9.892;2024-02-21T04:47:09;100765.00;;;12.70
20103;BMP180;10210;52.284;9.892;2024-02-21T04:49:35;100753.00;;;12.60
20103;BMP180;10210;52.284;9.892;2024-02-21T04:52:01;100761.00;;;12.60
20103;BMP180;10210;52.284;9.892;2024-02-21T04:54:27;100753.00;;;12.60
20103;BMP180;10210;52.284;9.892;2024-02-21T04:56:53;100769.00;;;12.60
20103;BMP180;10210;52.284;9.892;2024-02-21T04:59:18;100772.00;;;12.70
20103;BMP180;10210;52.284;9.892;2024-02-21T05:01:44;100768.00;;;12.60
20103;BMP180;10210;52.284;9.892;2024-02-21T05:04:10;100767.00;;;12.60
20103;BMP180;10210;52.284;9.892;2024-02-21T05:06:39;100772.00;;;12.60
20103;BMP180;10210;52.284;9.892;2024-02-21T05:09:09;100763.00;;;12.60
20103;BMP180;10210;52.284;9.892;2024-02-21T05:11:36;100761.00;;;12.60
20103;BMP180;10210;52.284;9.892;2024-02-21T05:14:02;100769.00;;;12.60
20103;BMP180;10210;52.284;9.892;2024-02-21T05:16:29;100760.00;;;12.60
20103;BMP180;10210;52.284;9.892;2024-02-21T05:18:54;100767.00;;;12.60
20103;BMP180;10210;52.284;9.892;2024-02-21T05:21:22;100756.00;;;12.60
20103;BMP180;10210;52.284;9.892;2024-02-21T05:23:49;100756.00;;;12.60
20103;BMP180;10210;52.284;9.892;2024-02-21T05:26:25;100755.00;;;12.60
20103;BMP180;10210;52.284;9.892;2024-02-21T05:28:51;100751.00;;;12.60
20103;BMP180;10210;52.284;9.892;2024-02-21T05:31:20;100757.00;;;12.60
20103;BMP180;10210;52.284;9.892;2024-02-21T05:33:49;100744.00;;;12.60
20103;BMP180;10210;52.284;9.892;2024-02-21T05:36:14;100753.00;;;12.60
20103;BMP180;10210;52.284;9.892;2024-02-21T05:38:40;100728.00;;;12.60
20103;BMP180;10210;52.284;9.892;2024-02-21T05:41:06;100745.00;;;12.60
20103;BMP180;10210;52.284;9.892;2024-02-21T05:43:32;100732.00;;;12.60
20103;BMP180;10210;52.284;9.892;2024-02-21T05:45:57;100734.00;;;12.70
20103;BMP180;10210;52.284;9.892;2024-02-21T05:48:23;100738.00;;;12.70
20103;BMP180;10210;52.284;9.892;2024-02-21T05:50:50;100738.00;;;12.70
20103;BMP180;10210;52.284;9.892;2024-02-21T05:53:15;100732.00;;;12.70
20103;BMP180;10210;52.284;9.892;2024-02-21T05:55:41;100739.00;;;12.70
20103;BMP180;10210;52.284;9.892;2024-02-21T05:58:07;100725.00;;;12.70
20103;BMP180;10210;52.284;9.892;2024-02-21T06:00:37;100728.00;;;12.70
20103;BMP180;10210;52.284;9.892;2024-02-21T06:03:03;100724.00;;;12.70
20103;BMP180;10210;52.284;9.892;2024-02-21T06:05:29;100729.00;;;12.70
20103;BMP180;10210;52.284;9.892;2024-02-21T06:07:54;100735.00;;;12.70
20103;BMP180;10210;52.284;9.892;2024-02-21T06:10:20;100726.00;;;12.70
20103;BMP180;10210;52.284;9.892;2024-02-21T06:12:46;100725.00;;;12.70
20103;BMP180;10210;52.284;9.892;2024-02-21T06:15:12;100727.00;;;12.70
20103;BMP180;10210;52.284;9.892;2024-02-21T06:17:37;100719.00;;;12.70
20103;BMP180;10210;52.284;9.892;2024-02-21T06:20:04;100718.00;;;12.70
20103;BMP180;10210;52.284;9.892;2024-02-21T06:22:30;100717.00;;;12.70
20103;BMP180;10210;52.284;9.892;2024-02-21T06:24:56;100713.00;;;12.70
20103;BMP180;10210;52.284;9.892;2024-02-21T06:27:22;100705.00;;;12.70
20103;BMP180;10210;52.284;9.892;2024-02-21T06:29:47;100704.00;;;12.70
20103;BMP180;10210;52.284;9.892;2024-02-21T06:32:13;100709.00;;;12.70
20103;BMP180;10210;52.284;9.892;2024-02-21T06:34:40;100697.00;;;12.70
20103;BMP180;10210;52.284;9.892;2024-02-21T06:37:05;100705.00;;;12.70
20103;BMP180;10210;52.284;9.892;2024-02-21T06:39:31;100708.00;;;12.70
20103;BMP180;10210;52.284;9.892;2024-02-21T06:41:56;100708.00;;;12.70
20103;BMP180;10210;52.284;9.892;2024-02-21T06:44:22;100699.00;;;12.70
20103;BMP180;10210;52.284;9.892;2024-02-21T06:46:48;100701.00;;;12.70
20103;BMP180;10210;52.284;9.892;2024-02-21T06:49:14;100707.00;;;12.70
20103;BMP180;10210;52.284;9.892;2024-02-21T06:51:44;100695.00;;;12.70
20103;BMP180;10210;52.284;9.892;2024-02-21T06:54:10;100705.00;;;12.70
20103;BMP180;10210;52.284;9.892;2024-02-21T06:56:37;100697.00;;;12.70
20103;BMP180;10210;52.284;9.892;2024-02-21T06:59:03;100696.00;;;12.70
20103;BMP180;10210;52.284;9.892;2024-02-21T07:01:30;100705.00;;;12.70
20103;BMP180;10210;52.284;9.892;2024-02-21T07:03:56;100704.00;;;12.70
20103;BMP180;10210;52.284;9.892;2024-02-21T07:06:22;100698.00;;;12.70
20103;BMP180;10210;52.284;9.892;2024-02-21T07:08:48;100715.00;;;12.70
20103;BMP180;10210;52.284;9.892;2024-02-21T07:11:14;100709.00;;;12.70
20103;BMP180;10210;52.284;9.892;2024-02-21T07:13:40;100716.00;;;12.70
20103;BMP180;10210;52.284;9.892;2024-02-21T07:16:07;100713.00;;;12.70
20103;BMP180;10210;52.284;9.892;2024-02-21T07:18:33;100712.00;;;12.70
20103;BMP180;10210;52.284;9.892;2024-02-21T07:20:59;100708.00;;;12.70
20103;BMP180;10210;52.284;9.892;2024-02-21T07:23:25;100715.00;;;12.70
20103;BMP180;10210;52.284;9.892;2024-02-21T07:25:51;100694.00;;;12.70
20103;BMP180;10210;52.284;9.892;2024-02-21T07:28:16;100703.00;;;12.70
20103;BMP180;10210;52.284;9.892;2024-02-21T07:30:43;100701.00;;;12.70
20103;BMP180;10210;52.284;9.892;2024-02-21T07:33:09;100693.00;;;12.70
20103;BMP180;10210;52.284;9.892;2024-02-21T07:35:35;100694.00;;;12.70
20103;BMP180;10210;52.284;9.892;2024-02-21T07:38:07;100696.00;;;12.70
20103;BMP180;10210;52.284;9.892;2024-02-21T07:40:37;100693.00;;;12.80
20103;BMP180;10210;52.284;9.892;2024-02-21T07:43:03;100688.00;;;12.70
20103;BMP180;10210;52.284;9.892;2024-02-21T07:45:29;100702.00;;;12.80
20103;BMP180;10210;52.284;9.892;2024-02-21T07:47:54;100693.00;;;12.80
20103;BMP180;10210;52.284;9.892;2024-02-21T07:50:20;100701.00;;;12.80
20103;BMP180;10210;52.284;9.892;2024-02-21T07:52:45;100699.00;;;12.80
20103;BMP180;10210;52.284;9.892;2024-02-21T07:55:11;100711.00;;;12.80
20103;BMP180;10210;52.284;9.892;2024-02-21T07:57:37;100720.00;;;12.80
20103;BMP180;10210;52.284;9.892;2024-02-21T08:00:04;100715.00;;;12.80
20103;BMP180;10210;52.284;9.892;2024-02-21T08:02:30;100705.00;;;12.80
20103;BMP180;10210;52.284;9.892;2024-02-21T08:04:55;100695.00;;;12.80
20103;BMP180;10210;52.284;9.892;2024-02-21T08:07:21;100701.00;;;12.90
20103;BMP180;10210;52.284;9.892;2024-02-21T08:09:47;100703.00;;;12.90
20103;BMP180;10210;52.284;9.892;2024-02-21T08:12:12;100698.00;;;12.90
20103;BMP180;10210;52.284;9.892;2024-02-21T08:14:38;100696.00;;;12.90
20103;BMP180;10210;52.284;9.892;2024-02-21T08:17:04;100703.00;;;12.90
20103;BMP180;10210;52.284;9.892;2024-02-21T08:19:29;100698.00;;;13.00
20103;BMP180;10210;52.284;9.892;2024-02-21T08:21:55;100700.00;;;13.00
20103;BMP180;10210;52.284;9.892;2024-02-21T08:24:21;100705.00;;;13.00
20103;BMP180;10210;52.284;9.892;2024-02-21T08:26:48;100704.00;;;13.00
20103;BMP180;10210;52.284;9.892;2024-02-21T08:29:14;100689.00;;;13.00
20103;BMP180;10210;52.284;9.892;2024-02-21T08:31:39;100697.00;;;13.00
20103;BMP180;10210;52.284;9.892;2024-02-21T08:34:05;100691.00;;;13.00
20103;BMP180;10210;52.284;9.892;2024-02-21T08:36:32;100688.00;;;13.00
20103;BMP180;10210;52.284;9.892;2024-02-21T08:38:59;100678.00;;;13.00
20103;BMP180;10210;52.284;9.892;2024-02-21T08:41:25;100688.00;;;13.00
20103;BMP180;10210;52.284;9.892;2024-02-21T08:43:52;100674.00;;;13.00
20103;BMP180;10210;52.284;9.892;2024-02-21T08:46:20;100668.00;;;13.10
20103;BMP180;10210;52.284;9.892;2024-02-21T08:48:46;100662.00;;;13.10
20103;BMP180;10210;52.284;9.892;2024-02-21T08:51:14;100663.00;;;13.10
20103;BMP180;10210;52.284;9.892;2024-02-21T08:53:40;100658.00;;;13.10
20103;BMP180;10210;52.284;9.892;2024-02-21T08:56:06;100658.00;;;13.10
20103;BMP180;10210;52.284;9.892;2024-02-21T08:58:34;100645.00;;;13.10
20103;BMP180;10210;52.284;9.892;2024-02-21T09:01:00;100642.00;;;13.10
20103;BMP180;10210;52.284;9.892;2024-02-21T09:03:26;100631.00;;;13.20
20103;BMP180;10210;52.284;9.892;2024-02-21T09:05:53;100633.00;;;13.20
20103;BMP180;10210;52.284;9.892;2024-02-21T09:08:18;100641.00;;;13.20
20103;BMP180;10210;52.284;9.892;2024-02-21T09:10:44;100635.00;;;13.20
20103;BMP180;10210;52.284;9.892;2024-02-21T09:13:10;100638.00;;;13.30
20103;BMP180;10210;52.284;9.892;2024-02-21T09:15:35;100647.00;;;13.30
20103;BMP180;10210;52.284;9.892;2024-02-21T09:18:01;100654.00;;;13.30
20103;BMP180;10210;52.284;9.892;2024-02-21T09:20:27;100639.00;;;13.30
20103;BMP180;10210;52.284;9.892;2024-02-21T09:22:52;100649.00;;;13.40
20103;BMP180;10210;52.284;9.892;2024-02-21T09:25:18;100652.00;;;13.40
20103;BMP180;10210;52.284;9.892;2024-02-21T09:27:45;100644.00;;;13.40
20103;BMP180;10210;52.284;9.892;2024-02-21T09:30:11;100645.00;;;13.50
20103;BMP180;10210;52.284;9.892;2024-02-21T09:32:38;100649.00;;;13.50
20103;BMP180;10210;52.284;9.892;2024-02-21T09:35:04;100641.00;;;13.60
20103;BMP180;10210;52.284;9.892;2024-02-21T09:37:33;100644.00;;;13.60
20103;BMP180;10210;52.284;9.892;2024-02-21T09:39:59;100632.00;;;13.70
20103;BMP180;10210;52.284;9.892;2024-02-21T09:42:40;100635.00;;;13.70
20103;BMP180;10210;52.284;9.892;2024-02-21T09:45:21;100638.00;;;13.70
20103;BMP180;10210;52.284;9.892;2024-02-21T09:48:19;100647.00;;;13.70
20103;BMP180;10210;52.284;9.892;2024-02-21T09:50:49;100636.00;;;13.70
20103;BMP180;10210;52.284;9.892;2024-02-21T09:53:15;100642.00;;;13.80
20103;BMP180;10210;52.284;9.892;2024-02-21T09:55:43;100633.00;;;13.80
20103;BMP180;10210;52.284;9.892;2024-02-21T09:58:09;100646.00;;;13.80
20103;BMP180;10210;52.284;9.892;2024-02-21T10:00:36;100640.00;;;13.90
20103;BMP180;10210;52.284;9.892;2024-02-21T10:03:03;100646.00;;;13.90
20103;BMP180;10210;52.284;9.892;2024-02-21T10:05:36;100632.00;;;13.90
20103;BMP180;10210;52.284;9.892;2024-02-21T10:08:05;100622.00;;;13.90
20103;BMP180;10210;52.284;9.892;2024-02-21T10:10:43;100633.00;;;13.90
20103;BMP180;10210;52.284;9.892;2024-02-21T10:13:10;100627.00;;;14.00
20103;BMP180;10210;52.284;9.892;2024-02-21T10:15:37;100630.00;;;14.00
20103;BMP180;10210;52.284;9.892;2024-02-21T10:18:03;100625.00;;;14.00
20103;BMP180;10210;52.284;9.892;2024-02-21T10:20:32;100623.00;;;14.10
20103;BMP180;10210;52.284;9.892;2024-02-21T10:23:06;100618.00;;;14.10
20103;BMP180;10210;52.284;9.892;2024-02-21T10:25:37;100609.00;;;14.10
20103;BMP180;10210;52.284;9.892;2024-02-21T10:28:07;100609.00;;;14.10
20103;BMP180;10210;52.284;9.892;2024-02-21T10:30:33;100610.00;;;14.10
20103;BMP180;10210;52.284;9.892;2024-02-21T10:32:58;100602.00;;;14.20
20103;BMP180;10210;52.284;9.892;2024-02-21T10:35:32;100600.00;;;14.20
20103;BMP180;10210;52.284;9.892;2024-02-21T10:38:00;100593.00;;;14.20
20103;BMP180;10210;52.284;9.892;2024-02-21T10:40:28;100590.00;;;14.30
20103;BMP180;10210;52.284;9.892;2024-02-21T10:42:58;100579.00;;;14.30
20103;BMP180;10210;52.284;9.892;2024-02-21T10:45:35;100571.00;;;14.30
20103;BMP180;10210;52.284;9.892;2024-02-21T10:48:17;100563.00;;;14.30
20103;BMP180;10210;52.284;9.892;2024-02-21T10:50:56;100553.00;;;14.30
20103;BMP180;10210;52.284;9.892;2024-02-21T10:53:43;100561.00;;;14.30
20103;BMP180;10210;52.284;9.892;2024-02-21T10:56:31;100549.00;;;14.30
20103;BMP180;10210;52.284;9.892;2024-02-21T10:59:03;100551.00;;;14.30
20103;BMP180;10210;52.284;9.892;2024-02-21T11:01:29;100555.00;;;14.30
20103;BMP180;10210;52.284;9.892;2024-02-21T11:04:07;100543.00;;;14.30
20103;BMP180;10210;52.284;9.892;2024-02-21T11:06:36;100540.00;;;14.30
20103;BMP180;10210;52.284;9.892;2024-02-21T11:09:07;100550.00;;;14.40
20103;BMP180;10210;52.284;9.892;2024-02-21T11:11:34;100537.00;;;14.40
20103;BMP180;10210;52.284;9.892;2024-02-21T11:14:20;100529.00;;;14.40
20103;BMP180;10210;52.284;9.892;2024-02-21T11:16:47;100524.00;;;14.50
20103;BMP180;10210;52.284;9.892;2024-02-21T11:19:22;100513.00;;;14.50
20103;BMP180;10210;52.284;9.892;2024-02-21T11:21:48;100502.00;;;14.60
20103;BMP180;10210;52.284;9.892;2024-02-21T11:24:31;100495.00;;;14.60
20103;BMP180;10210;52.284;9.892;2024-02-21T11:27:19;100498.00;;;14.60
20103;BMP180;10210;52.284;9.892;2024-02-21T11:29:55;100490.00;;;14.60
20103;BMP180;10210;52.284;9.892;2024-02-21T11:32:21;100478.00;;;14.70
20103;BMP180;10210;52.284;9.892;2024-02-21T11:34:59;100481.00;;;14.70
20103;BMP180;10210;52.284;9.892;2024-02-21T11:37:32;100478.00;;;14.80
20103;BMP180;10210;52.284;9.892;2024-02-21T11:40:03;100472.00;;;14.80
20103;BMP180;10210;52.284;9.892;2024-02-21T11:42:30;100474.00;;;14.90
20103;BMP180;10210;52.284;9.892;2024-02-21T11:44:57;100472.00;;;14.90
20103;BMP180;10210;52.284;9.892;2024-02-21T11:47:23;100461.00;;;14.90
20103;BMP180;10210;52.284;9.892;2024-02-21T11:49:49;100459.00;;;14.90
20103;BMP180;10210;52.284;9.892;2024-02-21T11:52:21;100455.00;;;15.40
20103;BMP180;10210;52.284;9.892;2024-02-21T11:54:53;100448.00;;;15.20
20103;BMP180;10210;52.284;9.892;2024-02-21T11:57:21;100445.00;;;15.10
20103;BMP180;10210;52.284;9.892;2024-02-21T11:59:47;100435.00;;;15.10
20103;BMP180;10210;52.284;9.892;2024-02-21T12:02:14;100438.00;;;15.10
20103;BMP180;10210;52.284;9.892;2024-02-21T12:04:41;100440.00;;;15.10
20103;BMP180;10210;52.284;9.892;2024-02-21T12:07:07;100421.00;;;15.10
20103;BMP180;10210;52.284;9.892;2024-02-21T12:09:34;100421.00;;;15.10
20103;BMP180;10210;52.284;9.892;2024-02-21T12:12:05;100414.00;;;15.10
20103;BMP180;10210;52.284;9.892;2024-02-21T12:14:33;100412.00;;;15.10
20103;BMP180;10210;52.284;9.892;2024-02-21T12:17:00;100398.00;;;15.10
20103;BMP180;10210;52.284;9.892;2024-02-21T12:19:29;100393.00;;;15.10
20103;BMP180;10210;52.284;9.892;2024-02-21T12:21:55;100388.00;;;15.10
20103;BMP180;10210;52.284;9.892;2024-02-21T12:24:25;100392.00;;;15.10
20103;BMP180;10210;52.284;9.892;2024-02-21T12:26:52;100385.00;;;15.10
20103;BMP180;10210;52.284;9.892;2024-02-21T12:29:22;100383.00;;;15.20
20103;BMP180;10210;52.284;9.892;2024-02-21T12:31:49;100389.00;;;15.20
20103;BMP180;10210;52.284;9.892;2024-02-21T12:34:15;100383.00;;;15.20
20103;BMP180;10210;52.284;9.892;2024-02-21T12:36:45;100383.00;;;15.20
20103;BMP180;10210;52.284;9.892;2024-02-21T12:39:15;100390.00;;;15.20
20103;BMP180;10210;52.284;9.892;2024-02-21T12:41:42;100387.00;;;15.20
20103;BMP180;10210;52.284;9.892;2024-02-21T12:44:10;100374.00;;;15.20
20103;BMP180;10210;52.284;9.892;2024-02-21T12:46:37;100367.00;;;15.20
20103;BMP180;10210;52.284;9.892;2024-02-21T12:49:04;100369.00;;;15.20
20103;BMP180;10210;52.284;9.892;2024-02-21T12:51:31;100362.00;;;15.20
20103;BMP180;10210;52.284;9.892;2024-02-21T12:53:57;100369.00;;;15.20
20103;BMP180;10210;52.284;9.892;2024-02-21T12:56:23;100373.00;;;15.20
20103;BMP180;10210;52.284;9.892;2024-02-21T12:58:50;100369.00;;;15.20
20103;BMP180;10210;52.284;9.892;2024-02-21T13:01:16;100368.00;;;15.20
20103;BMP180;10210;52.284;9.892;2024-02-21T13:03:42;100371.00;;;15.20
20103;BMP180;10210;52.284;9.892;2024-02-21T13:06:07;100364.00;;;15.20
20103;BMP180;10210;52.284;9.892;2024-02-21T13:08:37;100368.00;;;15.20
20103;BMP180;10210;52.284;9.892;2024-02-21T13:11:03;100370.00;;;15.30
20103;BMP180;10210;52.284;9.892;2024-02-21T13:13:29;100363.00;;;15.30
20103;BMP180;10210;52.284;9.892;2024-02-21T13:15:59;100351.00;;;15.30
20103;BMP180;10210;52.284;9.892;2024-02-21T13:18:25;100352.00;;;15.30
20103;BMP180;10210;52.284;9.892;2024-02-21T13:20:51;100333.00;;;15.30
20103;BMP180;10210;52.284;9.892;2024-02-21T13:23:16;100318.00;;;15.30
20103;BMP180;10210;52.284;9.892;2024-02-21T13:25:42;100309.00;;;15.30
20103;BMP180;10210;52.284;9.892;2024-02-21T13:28:10;100309.00;;;15.30
20103;BMP180;10210;52.284;9.892;2024-02-21T13:30:35;100300.00;;;15.30
20103;BMP180;10210;52.284;9.892;2024-02-21T13:33:01;100290.00;;;15.30
20103;BMP180;10210;52.284;9.892;2024-02-21T13:35:28;100287.00;;;15.30
20103;BMP180;10210;52.284;9.892;2024-02-21T13:37:55;100277.00;;;15.40
20103;BMP180;10210;52.284;9.892;2024-02-21T13:40:21;100276.00;;;15.40
20103;BMP180;10210;52.284;9.892;2024-02-21T13:42:47;100278.00;;;15.40
20103;BMP180;10210;52.284;9.892;2024-02-21T13:45:15;100268.00;;;15.40
20103;BMP180;10210;52.284;9.892;2024-02-21T13:47:41;100271.00;;;15.40
20103;BMP180;10210;52.284;9.892;2024-02-21T13:50:07;100253.00;;;15.40
20103;BMP180;10210;52.284;9.892;2024-02-21T13:52:36;100247.00;;;15.40
20103;BMP180;10210;52.284;9.892;2024-02-21T13:55:02;100232.00;;;15.40
20103;BMP180;10210;52.284;9.892;2024-02-21T13:57:28;100229.00;;;15.40